Niewielkie zachmurzenie
Duże zachmurzenie
Mgła/niskie chmury stratus
Mgła/niskie chmury stratus
Mgła/niskie chmury stratus
Mgła/niskie chmury stratus
Mgła/niskie chmury stratus
(°C)
(°C)
-1°
-1°
-2°
-2°
-2°
-2°
-2°
S
SE
SE
SE
SE
SE
SE
(km/h)
3-5
3-4
4-5
4-6
5-6
5-8
5-9
(mm)
0
0
0
0
0
0
0
(%)
0
0
0
0
0
5
1

Wysokość słońca

/ -13.6°
sun-icon
UV 0
07:13
15:33
Sierp przybywający (49°)
11:34
18:35

METAR dla 52.17°N 20.97°E (EPWA)

Czas Warunki Temperatura/
Punkt rosy
Wiatr Widzialność Pogoda Chmury Ciśn. atm. Zmień Surowy
MVFR 3°C / 2°C variable 1kt 8000m - Few Clouds 1000ft
Broken Clouds 2400ft
1028 No Significant change EPWA 271530Z VRB01KT 8000 FEW010 BKN024 03/02 Q1028 NOSIG
MVFR 3°C / 1°C 190º 1kt 7000m - Few Clouds 1000ft
Broken Clouds 2500ft
1028 No Significant change EPWA 271500Z 19001KT 7000 FEW010 BKN025 03/01 Q1028 NOSIG
MVFR 4°C / 2°C variable 2kt 8000m - Scattered Clouds 1200ft
Broken Clouds 2200ft
1028 No Significant change EPWA 271430Z VRB02KT 8000 SCT012 BKN022 04/02 Q1028 NOSIG
MVFR 4°C / 2°C variable 2kt 8000m - Few Clouds 1000ft 1028 No Significant change EPWA 271400Z VRB02KT 8000 FEW010 04/02 Q1028 NOSIG
MVFR 4°C / 2°C 230º variable 190º to 270º 3kt 8000m - Few Clouds 1000ft 1028 No Significant change EPWA 271330Z 23003KT 190V270 8000 FEW010 04/02 Q1028 NOSIG
MVFR 4°C / 2°C 260º 3kt 7000m - Scattered Clouds 1000ft 1028 No Significant change EPWA 271300Z 26003KT 7000 SCT010 04/02 Q1028 NOSIG
MVFR 4°C / 2°C 260º 4kt 8000m - Few Clouds 1000ft
Scattered Clouds 2000ft
1028 No Significant change EPWA 271230Z 26004KT 8000 FEW010 SCT020 04/02 Q1028 NOSIG
MVFR 4°C / 2°C 250º 4kt 7000m - Scattered Clouds 1000ft 1029 No Significant change EPWA 271200Z 25004KT 7000 SCT010 04/02 Q1029 NOSIG
MVFR 3°C / 2°C 240º 5kt 7000m - Few Clouds 900ft
Scattered Clouds 1400ft
1029 No Significant change EPWA 271130Z 24005KT 7000 FEW009 SCT014 03/02 Q1029 NOSIG
MVFR 3°C / 2°C 240º 4kt 6000m - Few Clouds 800ft
Broken Clouds 1400ft
1029 No Significant change EPWA 271100Z 24004KT 6000 FEW008 BKN014 03/02 Q1029 NOSIG
MVFR 3°C / 1°C 230º variable 200º to 260º 4kt 6000m - Scattered Clouds 800ft
Broken Clouds 1400ft
1029 Temporary: Broken Clouds 1500ft. EPWA 271030Z 23004KT 200V260 6000 SCT008 BKN014 03/01 Q1029 TEMPO BKN015
IFR 2°C / 1°C 210º 4kt 5000m Mist Vertical Visibility of 0ft.
Broken Clouds 1200ft
1029 No Significant change EPWA 271000Z 21004KT 5000 BR BKN007 BKN012 02/01 Q1029 NOSIG
MVFR 2°C / 1°C 190º variable 160º to 220º 3kt 5000m Mist Vertical Visibility of 0ft.
Broken Clouds 1200ft
1029 No Significant change EPWA 270930Z 19003KT 160V220 5000 BR SCT007 BKN012 02/01 Q1029 NOSIG
IFR 2°C / 1°C 220º 4kt 4700m Mist Vertical Visibility of 0ft. 1029 Becoming: Visibility 6000. EPWA 270900Z 22004KT 4700 BR BKN006 02/01 Q1029 BECMG 6000
IFR 1°C / 0°C 200º variable 170º to 230º 4kt 4000m Mist Vertical Visibility of 0ft. 1029 No Significant change EPWA 270830Z 20004KT 170V230 4000 BR BKN006 01/00 Q1029 NOSIG
IFR 1°C / 0°C 180º 3kt 4000m Mist Vertical Visibility of 0ft. 1029 No Significant change EPWA 270800Z 18003KT 4000 BR BKN006 01/00 Q1029 NOSIG
IFR 1°C / 0°C 170º 3kt 3700m Mist Vertical Visibility of 0ft. 1029 No Significant change EPWA 270730Z 17003KT 3700 BR BKN006 01/00 Q1029 NOSIG
IFR 1°C / 0°C 180º 3kt 3700m Mist Vertical Visibility of 0ft. 1029 No Significant change EPWA 270700Z 18003KT 3700 BR BKN006 01/00 Q1029 NOSIG
IFR 1°C / 0°C 160º 2kt 4000m Light Snow Mist 1.00mm precipitation Vertical Visibility of 0ft. 1029 No Significant change EPWA 270630Z 16002KT 4000 -SN BR BKN005 01/M00 Q1029 NOSIG
IFR 1°C / 0°C variable 2kt 5000m Light Snow Mist 1.00mm precipitation Vertical Visibility of 0ft. 1029 Temporary: Visibility 3000. Mist . EPWA 270600Z VRB02KT 5000 -SN BR BKN005 01/M00 Q1029 TEMPO 3000 BR
IFR 0°C / 0°C 220º 2kt 6000m - Overcast 600ft 1029 No Significant change EPWA 270530Z 22002KT 6000 OVC006 00/M00 Q1029 NOSIG
IFR 0°C / 0°C 220º 3kt 5000m Mist Vertical Visibility of 0ft. 1029 No Significant change EPWA 270500Z 22003KT 5000 BR OVC005 00/M00 Q1029 NOSIG
LIFR 0°C / 0°C 230º 3kt 5000m Mist Vertical Visibility of 0ft. 1029 No Significant change EPWA 270430Z 23003KT 5000 BR OVC004 00/M00 Q1029 NOSIG
LIFR 0°C / 0°C 240º 4kt 4700m Mist Vertical Visibility of 0ft. 1029 No Significant change EPWA 270400Z 24004KT 4700 BR OVC004 00/M00 Q1029 NOSIG

MVFR

3°C / 2°C

[Więcej]
Wiatr variable 1kt
Widzialność 8000m
Pogoda -
Chmury Few Clouds 1000ft
Broken Clouds 2400ft
Ciśn. atm. 1028
Zmień No Significant change
Surowy EPWA 271530Z VRB01KT 8000 FEW010 BKN024 03/02 Q1028 NOSIG

MVFR

3°C / 1°C

[Więcej]
Wiatr 190º 1kt
Widzialność 7000m
Pogoda -
Chmury Few Clouds 1000ft
Broken Clouds 2500ft
Ciśn. atm. 1028
Zmień No Significant change
Surowy EPWA 271500Z 19001KT 7000 FEW010 BKN025 03/01 Q1028 NOSIG

MVFR

4°C / 2°C

[Więcej]
Wiatr variable 2kt
Widzialność 8000m
Pogoda -
Chmury Scattered Clouds 1200ft
Broken Clouds 2200ft
Ciśn. atm. 1028
Zmień No Significant change
Surowy EPWA 271430Z VRB02KT 8000 SCT012 BKN022 04/02 Q1028 NOSIG

MVFR

4°C / 2°C

[Więcej]
Wiatr variable 2kt
Widzialność 8000m
Pogoda -
Chmury Few Clouds 1000ft
Ciśn. atm. 1028
Zmień No Significant change
Surowy EPWA 271400Z VRB02KT 8000 FEW010 04/02 Q1028 NOSIG

MVFR

4°C / 2°C

[Więcej]
Wiatr 230º variable 190º to 270º 3kt
Widzialność 8000m
Pogoda -
Chmury Few Clouds 1000ft
Ciśn. atm. 1028
Zmień No Significant change
Surowy EPWA 271330Z 23003KT 190V270 8000 FEW010 04/02 Q1028 NOSIG

MVFR

4°C / 2°C

[Więcej]
Wiatr 260º 3kt
Widzialność 7000m
Pogoda -
Chmury Scattered Clouds 1000ft
Ciśn. atm. 1028
Zmień No Significant change
Surowy EPWA 271300Z 26003KT 7000 SCT010 04/02 Q1028 NOSIG

MVFR

4°C / 2°C

[Więcej]
Wiatr 260º 4kt
Widzialność 8000m
Pogoda -
Chmury Few Clouds 1000ft
Scattered Clouds 2000ft
Ciśn. atm. 1028
Zmień No Significant change
Surowy EPWA 271230Z 26004KT 8000 FEW010 SCT020 04/02 Q1028 NOSIG

MVFR

4°C / 2°C

[Więcej]
Wiatr 250º 4kt
Widzialność 7000m
Pogoda -
Chmury Scattered Clouds 1000ft
Ciśn. atm. 1029
Zmień No Significant change
Surowy EPWA 271200Z 25004KT 7000 SCT010 04/02 Q1029 NOSIG

MVFR

3°C / 2°C

[Więcej]
Wiatr 240º 5kt
Widzialność 7000m
Pogoda -
Chmury Few Clouds 900ft
Scattered Clouds 1400ft
Ciśn. atm. 1029
Zmień No Significant change
Surowy EPWA 271130Z 24005KT 7000 FEW009 SCT014 03/02 Q1029 NOSIG

MVFR

3°C / 2°C

[Więcej]
Wiatr 240º 4kt
Widzialność 6000m
Pogoda -
Chmury Few Clouds 800ft
Broken Clouds 1400ft
Ciśn. atm. 1029
Zmień No Significant change
Surowy EPWA 271100Z 24004KT 6000 FEW008 BKN014 03/02 Q1029 NOSIG

MVFR

3°C / 1°C

[Więcej]
Wiatr 230º variable 200º to 260º 4kt
Widzialność 6000m
Pogoda -
Chmury Scattered Clouds 800ft
Broken Clouds 1400ft
Ciśn. atm. 1029
Zmień Temporary: Broken Clouds 1500ft.
Surowy EPWA 271030Z 23004KT 200V260 6000 SCT008 BKN014 03/01 Q1029 TEMPO BKN015

IFR

2°C / 1°C

[Więcej]
Wiatr 210º 4kt
Widzialność 5000m
Pogoda Mist
Chmury Vertical Visibility of 0ft.
Broken Clouds 1200ft
Ciśn. atm. 1029
Zmień No Significant change
Surowy EPWA 271000Z 21004KT 5000 BR BKN007 BKN012 02/01 Q1029 NOSIG

MVFR

2°C / 1°C

[Więcej]
Wiatr 190º variable 160º to 220º 3kt
Widzialność 5000m
Pogoda Mist
Chmury Vertical Visibility of 0ft.
Broken Clouds 1200ft
Ciśn. atm. 1029
Zmień No Significant change
Surowy EPWA 270930Z 19003KT 160V220 5000 BR SCT007 BKN012 02/01 Q1029 NOSIG

IFR

2°C / 1°C

[Więcej]
Wiatr 220º 4kt
Widzialność 4700m
Pogoda Mist
Chmury Vertical Visibility of 0ft.
Ciśn. atm. 1029
Zmień Becoming: Visibility 6000.
Surowy EPWA 270900Z 22004KT 4700 BR BKN006 02/01 Q1029 BECMG 6000

IFR

1°C / 0°C

[Więcej]
Wiatr 200º variable 170º to 230º 4kt
Widzialność 4000m
Pogoda Mist
Chmury Vertical Visibility of 0ft.
Ciśn. atm. 1029
Zmień No Significant change
Surowy EPWA 270830Z 20004KT 170V230 4000 BR BKN006 01/00 Q1029 NOSIG

IFR

1°C / 0°C

[Więcej]
Wiatr 180º 3kt
Widzialność 4000m
Pogoda Mist
Chmury Vertical Visibility of 0ft.
Ciśn. atm. 1029
Zmień No Significant change
Surowy EPWA 270800Z 18003KT 4000 BR BKN006 01/00 Q1029 NOSIG

IFR

1°C / 0°C

[Więcej]
Wiatr 170º 3kt
Widzialność 3700m
Pogoda Mist
Chmury Vertical Visibility of 0ft.
Ciśn. atm. 1029
Zmień No Significant change
Surowy EPWA 270730Z 17003KT 3700 BR BKN006 01/00 Q1029 NOSIG

IFR

1°C / 0°C

[Więcej]
Wiatr 180º 3kt
Widzialność 3700m
Pogoda Mist
Chmury Vertical Visibility of 0ft.
Ciśn. atm. 1029
Zmień No Significant change
Surowy EPWA 270700Z 18003KT 3700 BR BKN006 01/00 Q1029 NOSIG

IFR

1°C / 0°C

[Więcej]
Wiatr 160º 2kt
Widzialność 4000m
Pogoda Light Snow Mist 1.00mm precipitation
Chmury Vertical Visibility of 0ft.
Ciśn. atm. 1029
Zmień No Significant change
Surowy EPWA 270630Z 16002KT 4000 -SN BR BKN005 01/M00 Q1029 NOSIG

IFR

1°C / 0°C

[Więcej]
Wiatr variable 2kt
Widzialność 5000m
Pogoda Light Snow Mist 1.00mm precipitation
Chmury Vertical Visibility of 0ft.
Ciśn. atm. 1029
Zmień Temporary: Visibility 3000. Mist .
Surowy EPWA 270600Z VRB02KT 5000 -SN BR BKN005 01/M00 Q1029 TEMPO 3000 BR

IFR

0°C / 0°C

[Więcej]
Wiatr 220º 2kt
Widzialność 6000m
Pogoda -
Chmury Overcast 600ft
Ciśn. atm. 1029
Zmień No Significant change
Surowy EPWA 270530Z 22002KT 6000 OVC006 00/M00 Q1029 NOSIG

IFR

0°C / 0°C

[Więcej]
Wiatr 220º 3kt
Widzialność 5000m
Pogoda Mist
Chmury Vertical Visibility of 0ft.
Ciśn. atm. 1029
Zmień No Significant change
Surowy EPWA 270500Z 22003KT 5000 BR OVC005 00/M00 Q1029 NOSIG

LIFR

0°C / 0°C

[Więcej]
Wiatr 230º 3kt
Widzialność 5000m
Pogoda Mist
Chmury Vertical Visibility of 0ft.
Ciśn. atm. 1029
Zmień No Significant change
Surowy EPWA 270430Z 23003KT 5000 BR OVC004 00/M00 Q1029 NOSIG

LIFR

0°C / 0°C

[Więcej]
Wiatr 240º 4kt
Widzialność 4700m
Pogoda Mist
Chmury Vertical Visibility of 0ft.
Ciśn. atm. 1029
Zmień No Significant change
Surowy EPWA 270400Z 24004KT 4700 BR OVC004 00/M00 Q1029 NOSIG

TAF dla 52.17°N 20.97°E (EPWA)

From till


From till Wind variable 2kt. Visibility 8000m. Nil Significant Cloud.
Becoming from till Wind variable 2kt. Visibility 4000m. Mist . Broken Clouds 700ft. Broken Clouds 1200ft.
Temporarly from till Visibility 2000m. Mist .
With 40% probability, from till Visibility 595.456m. Fog . Broken Clouds 200ft.
Becoming from till Wind 130º 10kt. Visibility 7000m. Mist . Broken Clouds 1500ft.

Surowy: TAF EPWA 271430Z 2715/2815 VRB02KT 8000 NSC BECMG 2715/2718 4000 BR BKN007 BKN012 TEMPO 2718/2806 2000 BR PROB40 2721/2806 0600 FG BKN002 BECMG 2806/2809 13010KT 7000 BKN015

Radar i prognoza opadów na teraz dla 52.17°N 20.97°E

Mżawka
Lekkie
Umiarkowane
Intensywne
Bardzo Intensywne
Grad

Wskaźnik lokalizacji jest umieszczony na 52.17°N 20.97°E. Animacja przedstawia radar opadów dla ostatniej godziny, jak również 1h prognozę pogody. Mżawka i lekkie opady mogą być niewidoczne na radarze. Intensywność opadów jest oznaczona kolorami od jasnoniebieskiego do ciemnofioletowego.

Aktualne zdjęcia satelitarne i zdjęcia opadów deszczu dla 52.17°N 20.97°E

Wskaźnik lokalizacji znajduje się na 52.17°N 20.97°E. [Więcej]

Obraz satelitarny w czasie rzeczywistym łączy światło widzialne w ciągu dnia z promieniowaniem podczerwonym w nocy. W nocy obraz nie jest ciemny, ponieważ promieniowanie podczerwone może wykrywać różnice temperatur. Niestety niskie chmury i mgłę trudno odróżnić od temperatury gruntu, przez co mogą być prawie niewidoczne w nocy. Zdjęcia satelitarne Meteosat dla Europy są aktualizowane w czasie rzeczywistym co 5 minut. Obrazy GOES-16/GOES-17 (Ameryka Północna i Południowa) oraz Himawari (Azja) są aktualizowane co 10 minut.

Opady są szacowane na podstawie radarów i satelitów. Szacunki opadów z satelitów są mniej dokładne w nocy niż w ciągu dnia. Pomarańczowe krzyżyki oznaczają miejsca, gdzie zaobserwowano pioruny (nad Europa).

Prawa autorskie 2022 EUMETSAT / meteoblue. Dane dot. błyskawic dostarczone przez nowcast.

Powrót do góry